Time,TemperatureF,DewpointF,PressureIn,WindDirection,WindDirectionDegrees,WindSpeedMPH,WindSpeedGustMPH,Humidity,HourlyPrecipIn,Conditions,Clouds,dailyrainin,SoftwareType,DateUTC
2015-03-31 00:05:00,77.7,58.0,29.87,NW,316,5.0,18.0,50,0.00,,,0.00,weatherlink.com 1.10,2015-03-30 21:05:00,
2015-03-31 00:20:00,77.4,58.0,29.86,WNW,291,11.0,16.0,51,0.00,,,0.00,weatherlink.com 1.10,2015-03-30 21:20:00,
2015-03-31 00:35:00,76.9,58.0,29.86,NW,314,5.0,19.0,53,0.00,,,0.00,weatherlink.com 1.10,2015-03-30 21:35:00,
2015-03-31 00:50:00,76.3,58.0,29.86,West,262,8.0,25.0,53,0.00,,,0.00,weatherlink.com 1.10,2015-03-30 21:50:00,
2015-03-31 01:05:00,76.0,59.0,29.86,WNW,289,9.0,19.0,55,0.00,,,0.00,weatherlink.com 1.10,2015-03-30 22:05:00,
2015-03-31 01:20:00,75.6,59.0,29.86,WNW,285,10.0,21.0,56,0.00,,,0.00,weatherlink.com 1.10,2015-03-30 22:20:00,
2015-03-31 01:35:00,75.2,60.0,29.86,WNW,294,4.0,18.0,59,0.00,,,0.00,weatherlink.com 1.10,2015-03-30 22:35:00,
2015-03-31 01:50:00,75.0,60.0,29.85,West,280,3.0,16.0,60,0.00,,,0.00,weatherlink.com 1.10,2015-03-30 22:50:00,
2015-03-31 02:05:00,74.7,60.0,29.86,West,278,10.0,13.0,60,0.00,,,0.00,weatherlink.com 1.10,2015-03-30 23:05:00,
2015-03-31 02:20:00,74.4,59.0,29.86,NW,319,11.0,15.0,60,0.00,,,0.00,weatherlink.com 1.10,2015-03-30 23:20:00,
2015-03-31 02:35:00,74.2,59.0,29.86,NW,321,7.0,10.0,60,0.00,,,0.00,weatherlink.com 1.10,2015-03-30 23:35:00,
2015-03-31 02:50:00,73.9,59.0,29.87,NW,316,6.0,12.0,59,0.00,,,0.00,weatherlink.com 1.10,2015-03-30 23:50:00,
2015-03-31 03:06:00,73.7,58.0,29.87,WNW,303,4.0,8.0,58,0.00,,,0.00,weatherlink.com 1.10,2015-03-31 00:06:00,
2015-03-31 03:21:00,73.5,58.0,29.86,WNW,299,6.0,9.0,58,0.00,,,0.00,weatherlink.com 1.10,2015-03-31 00:21:00,
2015-03-31 03:36:00,73.3,57.0,29.86,WNW,303,6.0,13.0,58,0.00,,,0.00,weatherlink.com 1.10,2015-03-31 00:36:00,
2015-03-31 03:51:00,73.1,58.0,29.87,WNW,287,4.0,14.0,59,0.00,,,0.00,weatherlink.com 1.10,2015-03-31 00:51:00,
2015-03-31 04:06:00,72.9,57.0,29.87,WNW,285,9.0,12.0,58,0.00,,,0.00,weatherlink.com 1.10,2015-03-31 01:06:00,
2015-03-31 04:21:00,72.8,57.0,29.88,WNW,297,10.0,13.0,58,0.00,,,0.00,weatherlink.com 1.10,2015-03-31 01:21:00,
2015-03-31 04:36:00,72.8,57.0,29.88,WNW,283,9.0,20.0,59,0.00,,,0.00,weatherlink.com 1.10,2015-03-31 01:36:00,
2015-03-31 04:51:00,72.4,57.0,29.88,NW,320,8.0,12.0,59,0.00,,,0.00,weatherlink.com 1.10,2015-03-31 01:51:00,
2015-03-31 05:06:00,72.2,57.0,29.89,WNW,293,5.0,13.0,59,0.00,,,0.00,weatherlink.com 1.10,2015-03-31 02:06:00,
2015-03-31 05:21:00,72.0,57.0,29.90,NNW,334,5.0,13.0,59,0.00,,,0.00,weatherlink.com 1.10,2015-03-31 02:21:00,
2015-03-31 05:36:00,71.9,57.0,29.91,NW,308,3.0,12.0,59,0.00,,,0.00,weatherlink.com 1.10,2015-03-31 02:36:00,
2015-03-31 05:51:00,71.8,57.0,29.91,NW,317,5.0,9.0,59,0.00,,,0.00,weatherlink.com 1.10,2015-03-31 02:51:00,
2015-03-31 06:06:00,71.7,56.0,29.92,NW,318,7.0,10.0,59,0.00,,,0.00,weatherlink.com 1.10,2015-03-31 03:06:00,
2015-03-31 06:21:00,71.6,56.0,29.93,WNW,299,6.0,9.0,59,0.00,,,0.00,weatherlink.com 1.10,2015-03-31 03:21:00,
2015-03-31 06:36:00,71.7,56.0,29.93,WNW,299,10.0,12.0,59,0.00,,,0.00,weatherlink.com 1.10,2015-03-31 03:36:00,
2015-03-31 06:51:00,71.9,57.0,29.93,NW,315,6.0,11.0,59,0.00,,,0.00,weatherlink.com 1.10,2015-03-31 03:51:00,
2015-03-31 07:06:00,72.4,56.0,29.94,NW,305,4.0,10.0,57,0.00,,,0.00,weatherlink.com 1.10,2015-03-31 04:06:00,
2015-03-31 07:21:00,73.0,56.0,29.94,NW,317,9.0,10.0,55,0.00,,,0.00,weatherlink.com 1.10,2015-03-31 04:21:00,
2015-03-31 07:36:00,73.3,56.0,29.95,WNW,303,8.0,12.0,54,0.00,,,0.00,weatherlink.com 1.10,2015-03-31 04:36:00,
2015-03-31 07:51:00,74.2,56.0,29.96,WNW,294,8.0,10.0,53,0.00,,,0.00,weatherlink.com 1.10,2015-03-31 04:51:00,
2015-03-31 08:06:00,74.2,55.0,29.96,WNW,297,8.0,11.0,51,0.00,,,0.00,weatherlink.com 1.10,2015-03-31 05:06:00,
2015-03-31 08:21:00,75.3,55.0,29.97,WNW,296,9.0,12.0,49,0.00,,,0.00,weatherlink.com 1.10,2015-03-31 05:21:00,
2015-03-31 08:36:00,76.1,55.0,29.97,WNW,289,6.0,14.0,48,0.00,,,0.00,weatherlink.com 1.10,2015-03-31 05:36:00,